sensor_id;sensor_type;location;lat;lon;timestamp;pressure;altitude;pressure_sealevel;temperature;humidity
21980;BME280;11154;48.558;9.234;2023-03-31T00:00:44;96946.00;;;14.23;73.33
21980;BME280;11154;48.558;9.234;2023-03-31T00:02:47;96926.22;;;14.24;72.78
21980;BME280;11154;48.558;9.234;2023-03-31T00:04:49;96936.91;;;14.24;73.10
21980;BME280;11154;48.558;9.234;2023-03-31T00:06:52;96939.59;;;14.24;73.00
21980;BME280;11154;48.558;9.234;2023-03-31T00:08:56;96924.59;;;14.23;72.50
21980;BME280;11154;48.558;9.234;2023-03-31T00:11:02;96925.19;;;14.25;72.86
21980;BME280;11154;48.558;9.234;2023-03-31T00:13:04;96919.84;;;14.25;73.03
21980;BME280;11154;48.558;9.234;2023-03-31T00:15:06;96933.44;;;14.24;72.96
21980;BME280;11154;48.558;9.234;2023-03-31T00:17:09;96937.97;;;14.23;73.33
21980;BME280;11154;48.558;9.234;2023-03-31T00:19:12;96933.00;;;14.20;73.88
21980;BME280;11154;48.558;9.234;2023-03-31T00:21:20;96929.91;;;14.17;74.42
21980;BME280;11154;48.558;9.234;2023-03-31T00:23:28;96931.13;;;14.14;74.56
21980;BME280;11154;48.558;9.234;2023-03-31T00:25:32;96924.31;;;14.12;73.82
21980;BME280;11154;48.558;9.234;2023-03-31T00:27:33;96921.88;;;14.17;75.50
21980;BME280;11154;48.558;9.234;2023-03-31T00:29:35;96919.63;;;14.14;74.73
21980;BME280;11154;48.558;9.234;2023-03-31T00:31:40;96915.47;;;14.11;73.84
21980;BME280;11154;48.558;9.234;2023-03-31T00:33:42;96905.94;;;14.09;72.32
21980;BME280;11154;48.558;9.234;2023-03-31T00:35:43;96910.94;;;14.12;72.67
21980;BME280;11154;48.558;9.234;2023-03-31T00:37:45;96913.22;;;14.15;73.47
21980;BME280;11154;48.558;9.234;2023-03-31T00:39:46;96911.19;;;14.17;73.24
21980;BME280;11154;48.558;9.234;2023-03-31T00:41:50;96904.59;;;14.19;72.62
21980;BME280;11154;48.558;9.234;2023-03-31T00:44:06;96893.47;;;14.16;71.43
21980;BME280;11154;48.558;9.234;2023-03-31T00:46:12;96891.59;;;14.10;71.34
21980;BME280;11154;48.558;9.234;2023-03-31T00:48:18;96890.75;;;14.09;71.61
21980;BME280;11154;48.558;9.234;2023-03-31T00:50:23;96887.69;;;14.12;71.58
21980;BME280;11154;48.558;9.234;2023-03-31T00:52:31;96878.78;;;14.05;71.37
21980;BME280;11154;48.558;9.234;2023-03-31T00:54:35;96873.06;;;14.08;71.91
21980;BME280;11154;48.558;9.234;2023-03-31T00:56:40;96863.03;;;14.10;71.65
21980;BME280;11154;48.558;9.234;2023-03-31T00:58:45;96848.22;;;14.14;73.06
21980;BME280;11154;48.558;9.234;2023-03-31T01:00:49;96818.03;;;13.46;75.24
21980;BME280;11154;48.558;9.234;2023-03-31T01:02:54;96829.72;;;12.70;79.48
21980;BME280;11154;48.558;9.234;2023-03-31T01:04:59;96818.34;;;12.40;81.47
21980;BME280;11154;48.558;9.234;2023-03-31T01:07:06;96816.84;;;12.31;82.86
21980;BME280;11154;48.558;9.234;2023-03-31T01:09:12;96815.94;;;12.24;84.38
21980;BME280;11154;48.558;9.234;2023-03-31T01:11:18;96817.31;;;12.21;84.84
21980;BME280;11154;48.558;9.234;2023-03-31T01:13:21;96817.97;;;12.23;83.72
21980;BME280;11154;48.558;9.234;2023-03-31T01:15:25;96805.47;;;12.23;83.63
21980;BME280;11154;48.558;9.234;2023-03-31T01:17:26;96800.31;;;12.22;84.32
21980;BME280;11154;48.558;9.234;2023-03-31T01:19:39;96802.34;;;12.20;85.28
21980;BME280;11154;48.558;9.234;2023-03-31T01:27:41;96796.84;;;12.42;84.89
21980;BME280;11154;48.558;9.234;2023-03-31T01:30:05;96806.38;;;11.80;89.75
21980;BME280;11154;48.558;9.234;2023-03-31T01:32:55;96796.16;;;11.63;92.26
21980;BME280;11154;48.558;9.234;2023-03-31T01:35:17;96793.25;;;11.79;89.96
21980;BME280;11154;48.558;9.234;2023-03-31T01:42:38;96790.97;;;11.47;93.52
21980;BME280;11154;48.558;9.234;2023-03-31T01:44:45;96794.38;;;11.41;95.17
21980;BME280;11154;48.558;9.234;2023-03-31T01:46:53;96792.19;;;11.59;93.15
21980;BME280;11154;48.558;9.234;2023-03-31T01:49:01;96807.41;;;11.65;92.67
21980;BME280;11154;48.558;9.234;2023-03-31T01:51:13;96806.88;;;11.69;93.49
21980;BME280;11154;48.558;9.234;2023-03-31T01:53:20;96804.22;;;11.69;94.11
21980;BME280;11154;48.558;9.234;2023-03-31T01:55:27;96799.69;;;11.70;94.38
21980;BME280;11154;48.558;9.234;2023-03-31T01:57:32;96804.84;;;11.71;94.58
21980;BME280;11154;48.558;9.234;2023-03-31T01:59:39;96814.31;;;11.74;94.87
21980;BME280;11154;48.558;9.234;2023-03-31T02:01:48;96801.00;;;11.74;94.94
21980;BME280;11154;48.558;9.234;2023-03-31T02:03:54;96804.94;;;11.78;94.89
21980;BME280;11154;48.558;9.234;2023-03-31T02:05:59;96803.56;;;11.82;94.70
21980;BME280;11154;48.558;9.234;2023-03-31T02:08:07;96809.16;;;11.87;94.68
21980;BME280;11154;48.558;9.234;2023-03-31T02:10:12;96810.88;;;11.94;93.48
21980;BME280;11154;48.558;9.234;2023-03-31T02:12:15;96807.44;;;12.00;93.46
21980;BME280;11154;48.558;9.234;2023-03-31T02:14:26;96814.53;;;12.08;92.51
21980;BME280;11154;48.558;9.234;2023-03-31T02:16:32;96811.56;;;12.17;92.56
21980;BME280;11154;48.558;9.234;2023-03-31T02:18:37;96807.28;;;12.23;92.69
21980;BME280;11154;48.558;9.234;2023-03-31T02:20:41;96803.25;;;12.26;92.41
21980;BME280;11154;48.558;9.234;2023-03-31T02:22:47;96799.19;;;12.30;92.82
21980;BME280;11154;48.558;9.234;2023-03-31T02:24:50;96795.50;;;12.31;93.33
21980;BME280;11154;48.558;9.234;2023-03-31T02:27:00;96788.06;;;12.27;94.96
21980;BME280;11154;48.558;9.234;2023-03-31T02:29:04;96768.31;;;12.22;96.01
21980;BME280;11154;48.558;9.234;2023-03-31T02:31:12;96760.72;;;12.19;96.95
21980;BME280;11154;48.558;9.234;2023-03-31T02:33:19;96747.00;;;12.22;96.64
21980;BME280;11154;48.558;9.234;2023-03-31T02:35:21;96740.47;;;12.24;96.47
21980;BME280;11154;48.558;9.234;2023-03-31T02:37:24;96722.00;;;12.23;97.46
21980;BME280;11154;48.558;9.234;2023-03-31T02:39:30;96714.84;;;12.23;97.67
21980;BME280;11154;48.558;9.234;2023-03-31T02:41:33;96711.16;;;12.24;97.44
21980;BME280;11154;48.558;9.234;2023-03-31T02:43:35;96698.66;;;12.24;97.40
21980;BME280;11154;48.558;9.234;2023-03-31T02:45:42;96677.34;;;12.24;96.95
21980;BME280;11154;48.558;9.234;2023-03-31T02:47:44;96658.09;;;12.29;95.94
21980;BME280;11154;48.558;9.234;2023-03-31T02:49:49;96646.59;;;12.28;97.06
21980;BME280;11154;48.558;9.234;2023-03-31T02:52:22;96654.38;;;12.23;97.58
21980;BME280;11154;48.558;9.234;2023-03-31T02:54:42;96635.47;;;12.19;97.94
21980;BME280;11154;48.558;9.234;2023-03-31T02:57:03;96629.72;;;12.22;97.18
21980;BME280;11154;48.558;9.234;2023-03-31T02:59:22;96615.16;;;12.18;97.99
21980;BME280;11154;48.558;9.234;2023-03-31T03:01:40;96649.78;;;12.72;96.36
21980;BME280;11154;48.558;9.234;2023-03-31T03:03:51;96642.03;;;13.11;93.07
21980;BME280;11154;48.558;9.234;2023-03-31T03:06:05;96643.16;;;13.36;90.42
21980;BME280;11154;48.558;9.234;2023-03-31T03:08:17;96635.03;;;13.50;89.45
21980;BME280;11154;48.558;9.234;2023-03-31T03:10:31;96625.19;;;13.64;88.82
21980;BME280;11154;48.558;9.234;2023-03-31T03:12:41;96626.66;;;13.72;88.20
21980;BME280;11154;48.558;9.234;2023-03-31T03:14:50;96625.84;;;13.78;87.53
21980;BME280;11154;48.558;9.234;2023-03-31T03:16:57;96630.16;;;13.86;86.90
21980;BME280;11154;48.558;9.234;2023-03-31T03:19:04;96624.41;;;13.89;86.45
21980;BME280;11154;48.558;9.234;2023-03-31T03:21:08;96615.78;;;13.93;85.73
21980;BME280;11154;48.558;9.234;2023-03-31T03:23:09;96613.34;;;13.98;85.20
21980;BME280;11154;48.558;9.234;2023-03-31T03:25:13;96596.06;;;14.01;84.80
21980;BME280;11154;48.558;9.234;2023-03-31T03:27:16;96599.75;;;14.06;84.71
21980;BME280;11154;48.558;9.234;2023-03-31T03:29:18;96588.25;;;14.06;84.89
21980;BME280;11154;48.558;9.234;2023-03-31T03:31:20;96590.50;;;14.09;84.63
21980;BME280;11154;48.558;9.234;2023-03-31T03:33:23;96576.75;;;14.12;84.09
21980;BME280;11154;48.558;9.234;2023-03-31T03:35:24;96575.53;;;14.14;83.86
21980;BME280;11154;48.558;9.234;2023-03-31T03:37:27;96579.84;;;14.15;84.05
21980;BME280;11154;48.558;9.234;2023-03-31T03:39:29;96572.22;;;14.12;83.29
21980;BME280;11154;48.558;9.234;2023-03-31T03:41:31;96571.63;;;14.10;83.55
21980;BME280;11154;48.558;9.234;2023-03-31T03:43:33;96567.28;;;14.09;84.25
21980;BME280;11154;48.558;9.234;2023-03-31T03:45:34;96554.13;;;14.08;84.22
21980;BME280;11154;48.558;9.234;2023-03-31T03:47:36;96554.91;;;14.02;83.91
21980;BME280;11154;48.558;9.234;2023-03-31T03:49:38;96540.13;;;13.99;83.88
21980;BME280;11154;48.558;9.234;2023-03-31T03:51:39;96536.00;;;13.97;84.12
21980;BME280;11154;48.558;9.234;2023-03-31T03:53:42;96528.22;;;13.95;83.67
21980;BME280;11154;48.558;9.234;2023-03-31T03:55:44;96523.25;;;13.92;83.92
21980;BME280;11154;48.558;9.234;2023-03-31T03:57:48;96517.72;;;13.87;83.79
21980;BME280;11154;48.558;9.234;2023-03-31T03:59:49;96516.50;;;13.83;83.51
21980;BME280;11154;48.558;9.234;2023-03-31T04:01:51;96504.97;;;13.83;83.54
21980;BME280;11154;48.558;9.234;2023-03-31T04:03:52;96503.75;;;13.79;83.47
21980;BME280;11154;48.558;9.234;2023-03-31T04:05:54;96510.94;;;13.78;83.51
21980;BME280;11154;48.558;9.234;2023-03-31T04:07:56;96500.25;;;13.78;83.41
21980;BME280;11154;48.558;9.234;2023-03-31T04:09:58;96493.28;;;13.77;83.38
21980;BME280;11154;48.558;9.234;2023-03-31T04:12:00;96488.75;;;13.78;82.51
21980;BME280;11154;48.558;9.234;2023-03-31T04:14:02;96478.06;;;13.78;82.79
21980;BME280;11154;48.558;9.234;2023-03-31T04:16:04;96458.53;;;13.77;81.76
21980;BME280;11154;48.558;9.234;2023-03-31T04:18:06;96443.53;;;13.76;80.88
21980;BME280;11154;48.558;9.234;2023-03-31T04:20:10;96431.81;;;13.77;80.23
21980;BME280;11154;48.558;9.234;2023-03-31T04:22:12;96419.69;;;13.81;79.49
21980;BME280;11154;48.558;9.234;2023-03-31T04:24:14;96416.59;;;13.84;78.89
21980;BME280;11154;48.558;9.234;2023-03-31T04:26:22;96425.22;;;13.86;79.14
21980;BME280;11154;48.558;9.234;2023-03-31T04:28:25;96431.63;;;13.85;79.24
21980;BME280;11154;48.558;9.234;2023-03-31T04:30:33;96423.34;;;13.93;80.51
21980;BME280;11154;48.558;9.234;2023-03-31T04:32:38;96418.81;;;14.00;80.45
21980;BME280;11154;48.558;9.234;2023-03-31T04:34:40;96433.63;;;14.03;79.46
21980;BME280;11154;48.558;9.234;2023-03-31T04:36:46;96427.47;;;14.02;79.04
21980;BME280;11154;48.558;9.234;2023-03-31T04:38:49;96437.72;;;14.05;78.92
21980;BME280;11154;48.558;9.234;2023-03-31T04:40:53;96430.31;;;14.07;78.53
21980;BME280;11154;48.558;9.234;2023-03-31T04:42:56;96420.06;;;14.11;78.37
21980;BME280;11154;48.558;9.234;2023-03-31T04:44:58;96415.94;;;14.15;77.61
21980;BME280;11154;48.558;9.234;2023-03-31T04:47:00;96418.81;;;14.13;77.71
21980;BME280;11154;48.558;9.234;2023-03-31T04:49:02;96411.41;;;14.15;77.68
21980;BME280;11154;48.558;9.234;2023-03-31T04:51:05;96408.75;;;14.15;77.58
21980;BME280;11154;48.558;9.234;2023-03-31T04:53:06;96407.28;;;14.19;77.20
21980;BME280;11154;48.558;9.234;2023-03-31T04:55:09;96404.38;;;14.21;77.03
21980;BME280;11154;48.558;9.234;2023-03-31T04:57:10;96408.31;;;14.25;77.40
21980;BME280;11154;48.558;9.234;2023-03-31T04:59:13;96404.38;;;14.27;76.74
21980;BME280;11154;48.558;9.234;2023-03-31T05:01:15;96415.25;;;14.32;76.61
21980;BME280;11154;48.558;9.234;2023-03-31T05:03:18;96418.13;;;14.37;77.00
21980;BME280;11154;48.558;9.234;2023-03-31T05:05:20;96405.13;;;14.41;77.08
21980;BME280;11154;48.558;9.234;2023-03-31T05:07:22;96414.59;;;14.43;76.51
21980;BME280;11154;48.558;9.234;2023-03-31T05:09:23;96411.91;;;14.43;77.67
21980;BME280;11154;48.558;9.234;2023-03-31T05:11:25;96405.53;;;14.44;78.86
21980;BME280;11154;48.558;9.234;2023-03-31T05:13:28;96403.47;;;14.46;79.74
21980;BME280;11154;48.558;9.234;2023-03-31T05:15:31;96400.81;;;14.46;80.31
21980;BME280;11154;48.558;9.234;2023-03-31T05:17:33;96410.06;;;14.43;81.22
21980;BME280;11154;48.558;9.234;2023-03-31T05:19:35;96408.44;;;14.43;81.80
21980;BME280;11154;48.558;9.234;2023-03-31T05:21:37;96412.13;;;14.42;82.60
21980;BME280;11154;48.558;9.234;2023-03-31T05:23:39;96420.59;;;14.39;82.84
21980;BME280;11154;48.558;9.234;2023-03-31T05:25:41;96421.00;;;14.36;83.26
21980;BME280;11154;48.558;9.234;2023-03-31T05:27:43;96438.53;;;14.32;83.56
21980;BME280;11154;48.558;9.234;2023-03-31T05:29:45;96441.41;;;14.30;83.98
21980;BME280;11154;48.558;9.234;2023-03-31T05:31:48;96427.41;;;14.28;84.18
21980;BME280;11154;48.558;9.234;2023-03-31T05:33:50;96414.06;;;14.28;84.37
21980;BME280;11154;48.558;9.234;2023-03-31T05:35:52;96414.66;;;14.30;85.29
21980;BME280;11154;48.558;9.234;2023-03-31T05:37:54;96412.00;;;14.30;85.40
21980;BME280;11154;48.558;9.234;2023-03-31T05:39:55;96402.50;;;14.28;85.43
21980;BME280;11154;48.558;9.234;2023-03-31T05:41:57;96388.97;;;14.29;86.33
21980;BME280;11154;48.558;9.234;2023-03-31T05:43:59;96400.69;;;14.28;86.04
21980;BME280;11154;48.558;9.234;2023-03-31T05:46:01;96382.38;;;14.25;87.51
21980;BME280;11154;48.558;9.234;2023-03-31T05:48:04;96385.03;;;14.25;87.98
21980;BME280;11154;48.558;9.234;2023-03-31T05:50:07;96387.13;;;14.23;88.61
21980;BME280;11154;48.558;9.234;2023-03-31T05:52:09;96382.81;;;14.22;88.85
21980;BME280;11154;48.558;9.234;2023-03-31T05:54:11;96387.13;;;14.23;89.12
21980;BME280;11154;48.558;9.234;2023-03-31T05:56:12;96395.16;;;14.23;89.85
21980;BME280;11154;48.558;9.234;2023-03-31T05:58:14;96373.94;;;14.22;90.31
21980;BME280;11154;48.558;9.234;2023-03-31T06:00:16;96367.19;;;14.19;90.45
21980;BME280;11154;48.558;9.234;2023-03-31T06:02:18;96353.81;;;14.19;90.76
21980;BME280;11154;48.558;9.234;2023-03-31T06:04:21;96355.91;;;14.17;90.92
21980;BME280;11154;48.558;9.234;2023-03-31T06:06:23;96346.41;;;14.15;91.20
21980;BME280;11154;48.558;9.234;2023-03-31T06:08:25;96334.91;;;14.14;90.97
21980;BME280;11154;48.558;9.234;2023-03-31T06:10:27;96336.97;;;14.12;91.32
21980;BME280;11154;48.558;9.234;2023-03-31T06:12:28;96328.38;;;14.10;91.58
21980;BME280;11154;48.558;9.234;2023-03-31T06:14:32;96324.84;;;14.10;91.86
21980;BME280;11154;48.558;9.234;2023-03-31T06:16:33;96322.38;;;14.08;92.16
21980;BME280;11154;48.558;9.234;2023-03-31T06:18:35;96309.00;;;14.08;92.52
21980;BME280;11154;48.558;9.234;2023-03-31T06:20:38;96304.69;;;14.07;93.21
21980;BME280;11154;48.558;9.234;2023-03-31T06:22:42;96304.50;;;14.02;93.84
21980;BME280;11154;48.558;9.234;2023-03-31T06:24:43;96307.59;;;13.99;93.59
21980;BME280;11154;48.558;9.234;2023-03-31T06:26:45;96310.25;;;13.99;94.24
21980;BME280;11154;48.558;9.234;2023-03-31T06:28:46;96318.50;;;13.98;94.13
21980;BME280;11154;48.558;9.234;2023-03-31T06:30:48;96322.41;;;13.95;93.29
21980;BME280;11154;48.558;9.234;2023-03-31T06:32:49;96326.75;;;13.96;93.24
21980;BME280;11154;48.558;9.234;2023-03-31T06:34:51;96307.00;;;13.97;93.97
21980;BME280;11154;48.558;9.234;2023-03-31T06:36:54;96281.09;;;13.98;94.17
21980;BME280;11154;48.558;9.234;2023-03-31T06:38:56;96279.66;;;13.95;94.51
21980;BME280;11154;48.558;9.234;2023-03-31T06:40:58;96264.25;;;13.97;95.10
21980;BME280;11154;48.558;9.234;2023-03-31T06:42:59;96297.97;;;13.98;95.11
21980;BME280;11154;48.558;9.234;2023-03-31T06:45:01;96297.69;;;14.06;95.58
21980;BME280;11154;48.558;9.234;2023-03-31T06:47:03;96303.47;;;14.03;95.45
21980;BME280;11154;48.558;9.234;2023-03-31T06:49:04;96334.94;;;14.01;95.70
21980;BME280;11154;48.558;9.234;2023-03-31T06:51:07;96348.53;;;14.00;95.69
21980;BME280;11154;48.558;9.234;2023-03-31T06:53:10;96365.81;;;13.97;95.79
21980;BME280;11154;48.558;9.234;2023-03-31T06:55:12;96380.59;;;13.93;96.13
21980;BME280;11154;48.558;9.234;2023-03-31T06:57:15;96403.00;;;13.92;96.50
21980;BME280;11154;48.558;9.234;2023-03-31T06:59:16;96403.84;;;13.93;97.21
21980;BME280;11154;48.558;9.234;2023-03-31T07:01:18;96424.81;;;13.89;97.48
21980;BME280;11154;48.558;9.234;2023-03-31T07:03:20;96428.28;;;13.90;98.17
21980;BME280;11154;48.558;9.234;2023-03-31T07:05:24;96440.63;;;13.91;98.19
21980;BME280;11154;48.558;9.234;2023-03-31T07:07:30;96443.09;;;13.92;98.50
21980;BME280;11154;48.558;9.234;2023-03-31T07:09:33;96455.66;;;13.98;98.58
21980;BME280;11154;48.558;9.234;2023-03-31T07:11:35;96450.47;;;13.97;98.06
21980;BME280;11154;48.558;9.234;2023-03-31T07:13:36;96441.66;;;13.96;97.77
21980;BME280;11154;48.558;9.234;2023-03-31T07:15:38;96448.03;;;13.95;97.36
21980;BME280;11154;48.558;9.234;2023-03-31T07:17:39;96445.75;;;13.92;97.02
21980;BME280;11154;48.558;9.234;2023-03-31T07:19:42;96458.31;;;13.92;96.39
21980;BME280;11154;48.558;9.234;2023-03-31T07:21:47;96454.00;;;13.91;95.48
21980;BME280;11154;48.558;9.234;2023-03-31T07:23:49;96419.03;;;13.92;95.13
21980;BME280;11154;48.558;9.234;2023-03-31T07:25:52;96384.28;;;13.92;95.13
21980;BME280;11154;48.558;9.234;2023-03-31T07:27:53;96389.03;;;13.90;94.97
21980;BME280;11154;48.558;9.234;2023-03-31T07:29:55;96390.47;;;13.86;93.02
21980;BME280;11154;48.558;9.234;2023-03-31T07:31:56;96391.72;;;13.90;93.27
21980;BME280;11154;48.558;9.234;2023-03-31T07:33:59;96394.97;;;13.92;93.92
21980;BME280;11154;48.558;9.234;2023-03-31T07:36:03;96385.94;;;13.93;94.35
21980;BME280;11154;48.558;9.234;2023-03-31T07:38:05;96386.78;;;13.94;94.62
21980;BME280;11154;48.558;9.234;2023-03-31T07:40:09;96390.66;;;13.98;94.71
21980;BME280;11154;48.558;9.234;2023-03-31T07:42:13;96391.06;;;14.01;95.24
21980;BME280;11154;48.558;9.234;2023-03-31T07:44:14;96387.38;;;14.02;94.55
21980;BME280;11154;48.558;9.234;2023-03-31T07:46:19;96375.22;;;14.06;94.60
21980;BME280;11154;48.558;9.234;2023-03-31T07:48:21;96363.94;;;14.11;94.39
21980;BME280;11154;48.558;9.234;2023-03-31T07:50:23;96359.19;;;14.13;94.38
21980;BME280;11154;48.558;9.234;2023-03-31T07:52:25;96352.59;;;14.15;93.63
21980;BME280;11154;48.558;9.234;2023-03-31T07:54:26;96349.50;;;14.18;93.88
21980;BME280;11154;48.558;9.234;2023-03-31T07:56:28;96334.06;;;14.20;93.66
21980;BME280;11154;48.558;9.234;2023-03-31T07:58:31;96332.00;;;14.22;93.42
21980;BME280;11154;48.558;9.234;2023-03-31T08:00:33;96327.66;;;14.28;93.29
21980;BME280;11154;48.558;9.234;2023-03-31T08:02:34;96330.31;;;14.34;93.07
21980;BME280;11154;48.558;9.234;2023-03-31T08:04:36;96326.16;;;14.38;92.62
21980;BME280;11154;48.558;9.234;2023-03-31T08:06:38;96324.50;;;14.43;92.73
21980;BME280;11154;48.558;9.234;2023-03-31T08:08:40;96313.41;;;14.40;91.02
21980;BME280;11154;48.558;9.234;2023-03-31T08:10:42;96308.00;;;14.46;90.66
21980;BME280;11154;48.558;9.234;2023-03-31T08:12:44;96307.53;;;14.56;91.02
21980;BME280;11154;48.558;9.234;2023-03-31T08:14:47;96305.84;;;14.68;91.68
21980;BME280;11154;48.558;9.234;2023-03-31T08:16:49;96313.78;;;14.74;90.96
21980;BME280;11154;48.558;9.234;2023-03-31T08:18:50;96314.56;;;14.81;90.27
21980;BME280;11154;48.558;9.234;2023-03-31T08:20:52;96311.41;;;14.91;90.25
21980;BME280;11154;48.558;9.234;2023-03-31T08:22:54;96311.34;;;14.97;89.58
21980;BME280;11154;48.558;9.234;2023-03-31T08:24:55;96315.47;;;15.00;88.28
21980;BME280;11154;48.558;9.234;2023-03-31T08:26:57;96317.84;;;15.08;87.05
21980;BME280;11154;48.558;9.234;2023-03-31T08:28:59;96321.91;;;15.16;87.21
21980;BME280;11154;48.558;9.234;2023-03-31T08:31:03;96319.00;;;15.18;85.46
21980;BME280;11154;48.558;9.234;2023-03-31T08:33:06;96316.31;;;15.24;86.50
21980;BME280;11154;48.558;9.234;2023-03-31T08:35:08;96310.28;;;15.29;86.22
21980;BME280;11154;48.558;9.234;2023-03-31T08:37:10;96320.16;;;15.35;86.42
21980;BME280;11154;48.558;9.234;2023-03-31T08:39:12;96316.22;;;15.37;85.10
21980;BME280;11154;48.558;9.234;2023-03-31T08:41:26;96310.41;;;15.40;83.77
21980;BME280;11154;48.558;9.234;2023-03-31T08:43:34;96319.66;;;15.44;82.25
21980;BME280;11154;48.558;9.234;2023-03-31T08:45:40;96315.25;;;15.50;82.42
21980;BME280;11154;48.558;9.234;2023-03-31T08:47:47;96305.53;;;15.55;83.15
21980;BME280;11154;48.558;9.234;2023-03-31T08:49:52;96294.56;;;15.57;80.80
21980;BME280;11154;48.558;9.234;2023-03-31T08:51:57;96300.44;;;15.65;81.58
21980;BME280;11154;48.558;9.234;2023-03-31T08:54:01;96313.19;;;15.70;81.99
21980;BME280;11154;48.558;9.234;2023-03-31T08:56:08;96305.28;;;15.75;81.56
21980;BME280;11154;48.558;9.234;2023-03-31T08:58:23;96310.59;;;15.81;80.32
21980;BME280;11154;48.558;9.234;2023-03-31T09:00:31;96306.88;;;15.82;80.67
21980;BME280;11154;48.558;9.234;2023-03-31T09:02:45;96308.06;;;15.86;78.50
21980;BME280;11154;48.558;9.234;2023-03-31T09:05:17;96314.19;;;15.93;81.34
21980;BME280;11154;48.558;9.234;2023-03-31T09:07:27;96285.88;;;15.97;79.61
21980;BME280;11154;48.558;9.234;2023-03-31T09:09:42;96295.56;;;15.98;77.48
21980;BME280;11154;48.558;9.234;2023-03-31T09:11:51;96289.88;;;16.06;79.54
21980;BME280;11154;48.558;9.234;2023-03-31T09:14:16;96291.66;;;16.12;78.55
21980;BME280;11154;48.558;9.234;2023-03-31T09:16:23;96287.47;;;16.16;77.88
21980;BME280;11154;48.558;9.234;2023-03-31T09:18:31;96288.88;;;16.18;74.71
21980;BME280;11154;48.558;9.234;2023-03-31T09:20:37;96273.75;;;16.24;75.78
21980;BME280;11154;48.558;9.234;2023-03-31T09:22:43;96268.56;;;16.29;74.65
21980;BME280;11154;48.558;9.234;2023-03-31T09:24:54;96280.78;;;16.25;72.30
21980;BME280;11154;48.558;9.234;2023-03-31T09:27:00;96278.09;;;16.25;72.17
21980;BME280;11154;48.558;9.234;2023-03-31T09:29:09;96273.31;;;16.27;71.15
21980;BME280;11154;48.558;9.234;2023-03-31T09:31:16;96258.94;;;16.21;66.65
21980;BME280;11154;48.558;9.234;2023-03-31T09:33:25;96253.94;;;16.25;67.59
21980;BME280;11154;48.558;9.234;2023-03-31T09:35:32;96235.31;;;16.30;66.32
21980;BME280;11154;48.558;9.234;2023-03-31T09:37:34;96240.25;;;16.33;65.73
21980;BME280;11154;48.558;9.234;2023-03-31T09:39:36;96229.53;;;16.33;64.29
21980;BME280;11154;48.558;9.234;2023-03-31T09:41:40;96239.34;;;16.39;66.42
21980;BME280;11154;48.558;9.234;2023-03-31T09:43:44;96239.81;;;16.47;67.64
21980;BME280;11154;48.558;9.234;2023-03-31T09:45:46;96230.75;;;16.48;66.07
21980;BME280;11154;48.558;9.234;2023-03-31T09:47:50;96218.84;;;16.56;65.19
21980;BME280;11154;48.558;9.234;2023-03-31T09:49:52;96229.13;;;16.59;65.66
21980;BME280;11154;48.558;9.234;2023-03-31T09:52:03;96229.59;;;16.56;64.31
21980;BME280;11154;48.558;9.234;2023-03-31T09:54:11;96196.22;;;16.63;62.41
21980;BME280;11154;48.558;9.234;2023-03-31T09:56:30;96201.50;;;16.69;61.43
21980;BME280;11154;48.558;9.234;2023-03-31T09:58:39;96198.69;;;16.76;62.49
21980;BME280;11154;48.558;9.234;2023-03-31T10:00:43;96189.00;;;16.75;62.42
21980;BME280;11154;48.558;9.234;2023-03-31T10:03:00;96181.28;;;16.78;64.51
21980;BME280;11154;48.558;9.234;2023-03-31T10:05:18;96186.31;;;16.86;65.68
21980;BME280;11154;48.558;9.234;2023-03-31T10:07:22;96198.03;;;17.03;64.51
21980;BME280;11154;48.558;9.234;2023-03-31T10:09:26;96182.63;;;17.44;67.09
21980;BME280;11154;48.558;9.234;2023-03-31T10:11:30;96184.19;;;17.68;63.89
21980;BME280;11154;48.558;9.234;2023-03-31T10:13:38;96167.16;;;17.91;60.77
21980;BME280;11154;48.558;9.234;2023-03-31T10:15:41;96162.06;;;18.06;60.92
21980;BME280;11154;48.558;9.234;2023-03-31T10:17:44;96167.59;;;17.99;56.85
21980;BME280;11154;48.558;9.234;2023-03-31T10:19:49;96171.31;;;18.09;59.17
21980;BME280;11154;48.558;9.234;2023-03-31T10:21:56;96167.56;;;18.10;56.01
21980;BME280;11154;48.558;9.234;2023-03-31T10:24:00;96161.97;;;18.01;56.63
21980;BME280;11154;48.558;9.234;2023-03-31T10:26:03;96151.09;;;18.07;58.79
21980;BME280;11154;48.558;9.234;2023-03-31T10:28:05;96139.91;;;18.43;58.74
21980;BME280;11154;48.558;9.234;2023-03-31T10:30:10;96129.97;;;18.27;54.63
21980;BME280;11154;48.558;9.234;2023-03-31T10:32:17;96128.81;;;18.39;56.80
21980;BME280;11154;48.558;9.234;2023-03-31T10:34:23;96119.44;;;17.98;56.24
21980;BME280;11154;48.558;9.234;2023-03-31T10:36:27;96119.03;;;17.78;54.32
21980;BME280;11154;48.558;9.234;2023-03-31T10:38:31;96134.41;;;17.66;53.17
21980;BME280;11154;48.558;9.234;2023-03-31T10:40:36;96134.19;;;17.56;53.71
21980;BME280;11154;48.558;9.234;2023-03-31T10:42:38;96120.56;;;17.46;52.43
21980;BME280;11154;48.558;9.234;2023-03-31T10:44:40;96122.81;;;17.38;54.88
21980;BME280;11154;48.558;9.234;2023-03-31T10:46:46;96111.13;;;17.32;53.37
21980;BME280;11154;48.558;9.234;2023-03-31T10:48:50;96112.66;;;17.28;54.32
21980;BME280;11154;48.558;9.234;2023-03-31T10:50:58;96097.94;;;17.31;55.97
21980;BME280;11154;48.558;9.234;2023-03-31T10:53:02;96105.16;;;17.30;54.47
21980;BME280;11154;48.558;9.234;2023-03-31T10:55:11;96092.56;;;17.31;54.60
21980;BME280;11154;48.558;9.234;2023-03-31T10:57:24;96087.19;;;17.31;53.67
21980;BME280;11154;48.558;9.234;2023-03-31T10:59:41;96093.69;;;17.35;55.03
21980;BME280;11154;48.558;9.234;2023-03-31T11:01:58;96087.13;;;17.42;57.08
21980;BME280;11154;48.558;9.234;2023-03-31T11:04:18;96084.06;;;17.50;56.75
21980;BME280;11154;48.558;9.234;2023-03-31T11:06:28;96083.59;;;17.53;53.60
21980;BME280;11154;48.558;9.234;2023-03-31T11:08:42;96094.91;;;17.55;53.71
21980;BME280;11154;48.558;9.234;2023-03-31T11:11:11;96084.41;;;17.53;51.91
21980;BME280;11154;48.558;9.234;2023-03-31T11:13:24;96086.28;;;17.53;51.32